createdAt,value
2023-05-16T00:00:11.141Z,12.92
2023-05-16T00:03:55.264Z,12.97
2023-05-16T00:06:59.468Z,13.02
2023-05-16T00:10:03.643Z,13.03
2023-05-16T00:13:07.711Z,13.02
2023-05-16T00:16:14.770Z,13.02
2023-05-16T00:19:20.393Z,13.04
2023-05-16T00:22:25.755Z,13.10
2023-05-16T00:25:29.722Z,13.16
2023-05-16T00:28:33.695Z,13.24
2023-05-16T00:31:37.868Z,13.28
2023-05-16T00:34:42.569Z,13.27
2023-05-16T00:37:46.757Z,13.28
2023-05-16T00:40:50.993Z,13.29
2023-05-16T00:43:54.975Z,13.29
2023-05-16T00:47:00.440Z,13.31
2023-05-16T00:50:05.664Z,13.35
2023-05-16T00:53:11.061Z,13.37
2023-05-16T00:56:16.896Z,13.33
2023-05-16T00:59:21.115Z,13.30
2023-05-16T01:02:29.254Z,13.34
2023-05-16T01:05:33.649Z,13.36
2023-05-16T01:08:37.652Z,13.36
2023-05-16T01:12:02.259Z,13.37
2023-05-16T01:15:22.833Z,13.40
2023-05-16T01:18:52.308Z,13.43
2023-05-16T01:22:06.736Z,13.40
2023-05-16T01:25:46.901Z,13.38
2023-05-16T01:28:52.257Z,13.36
2023-05-16T01:31:56.289Z,13.31
2023-05-16T01:35:00.614Z,13.29
2023-05-16T01:38:24.875Z,13.26
2023-05-16T01:42:04.227Z,13.23
2023-05-16T01:45:45.997Z,13.20
2023-05-16T01:49:17.013Z,13.13
2023-05-16T01:52:45.362Z,13.05
2023-05-16T01:55:53.261Z,13.02
2023-05-16T01:58:59.534Z,13.04
2023-05-16T02:02:03.570Z,13.04
2023-05-16T02:05:08.596Z,13.03
2023-05-16T02:08:13.937Z,13.00
2023-05-16T02:11:19.282Z,12.97
2023-05-16T02:14:23.400Z,12.95
2023-05-16T02:17:28.049Z,12.94
2023-05-16T02:20:33.377Z,12.91
2023-05-16T02:23:38.523Z,12.88
2023-05-16T02:26:42.845Z,12.85
2023-05-16T02:29:46.964Z,12.80
2023-05-16T02:32:51.017Z,12.76
2023-05-16T02:35:55.506Z,12.73
2023-05-16T02:38:59.523Z,12.69
2023-05-16T02:42:04.437Z,12.67
2023-05-16T02:45:09.431Z,12.65
2023-05-16T02:48:13.643Z,12.59
2023-05-16T02:51:21.109Z,12.56
2023-05-16T02:54:25.141Z,12.54
2023-05-16T02:57:29.149Z,12.52
2023-05-16T03:00:33.262Z,12.47
2023-05-16T03:03:37.657Z,12.41
2023-05-16T03:06:41.912Z,12.37
2023-05-16T03:09:46.025Z,12.35
2023-05-16T03:12:50.040Z,12.30
2023-05-16T03:15:54.095Z,12.29
2023-05-16T03:18:58.345Z,12.27
2023-05-16T03:22:02.811Z,12.21
2023-05-16T03:25:07.953Z,12.11
2023-05-16T03:28:14.068Z,12.06
2023-05-16T03:31:19.582Z,12.03
2023-05-16T03:34:23.890Z,12.05
2023-05-16T03:37:28.211Z,12.05
2023-05-16T03:40:32.428Z,11.99
2023-05-16T03:43:36.744Z,11.96
2023-05-16T03:46:40.770Z,11.92
2023-05-16T03:49:44.791Z,11.93
2023-05-16T03:52:48.777Z,11.98
2023-05-16T03:55:52.821Z,12.04
2023-05-16T03:58:56.880Z,12.11
2023-05-16T04:02:01.343Z,12.17
2023-05-16T04:05:10.217Z,12.22
2023-05-16T04:08:14.613Z,12.27
2023-05-16T04:11:18.734Z,12.30
2023-05-16T04:14:25.624Z,12.36
2023-05-16T04:17:29.874Z,12.40
2023-05-16T04:20:33.945Z,12.44
2023-05-16T04:23:38.075Z,12.47
2023-05-16T04:26:42.091Z,12.46
2023-05-16T04:29:46.163Z,12.48
2023-05-16T04:32:50.165Z,12.52
2023-05-16T04:35:54.840Z,12.57
2023-05-16T04:38:58.869Z,12.64
2023-05-16T04:42:03.312Z,12.70
2023-05-16T04:45:10.999Z,12.75
2023-05-16T04:48:15.430Z,12.81
2023-05-16T04:51:19.649Z,12.87
2023-05-16T04:54:23.768Z,12.92
2023-05-16T04:57:28.290Z,12.94
2023-05-16T05:00:32.616Z,12.94
2023-05-16T05:03:36.737Z,12.96
2023-05-16T05:06:41.373Z,13.01
2023-05-16T05:09:45.322Z,13.03
2023-05-16T05:12:49.398Z,13.04
2023-05-16T05:15:53.723Z,13.07
2023-05-16T05:18:58.388Z,13.10
2023-05-16T05:22:02.629Z,13.18
2023-05-16T05:25:07.601Z,13.26
2023-05-16T05:28:11.725Z,13.34
2023-05-16T05:31:16.822Z,13.45
2023-05-16T05:34:21.114Z,13.53
2023-05-16T05:37:26.229Z,13.61
2023-05-16T05:40:30.457Z,13.69
2023-05-16T05:43:35.303Z,13.74
2023-05-16T05:46:39.807Z,13.81
2023-05-16T05:49:43.933Z,13.91
2023-05-16T05:52:48.224Z,13.96
2023-05-16T05:55:52.236Z,13.98
2023-05-16T05:58:56.591Z,14.00
2023-05-16T06:02:00.654Z,14.04
2023-05-16T06:05:05.405Z,14.09
2023-05-16T06:08:09.871Z,14.17
2023-05-16T06:11:13.886Z,14.24
2023-05-16T06:14:18.338Z,14.33
2023-05-16T06:17:22.775Z,14.43
2023-05-16T06:20:26.853Z,14.51
2023-05-16T06:23:31.776Z,14.57
2023-05-16T06:26:36.843Z,14.61
2023-05-16T06:29:41.076Z,14.68
2023-05-16T06:32:45.391Z,14.74
2023-05-16T06:35:50.320Z,14.81
2023-05-16T06:38:54.433Z,14.84
2023-05-16T06:41:58.464Z,14.89
2023-05-16T06:45:02.692Z,14.94
2023-05-16T06:48:08.225Z,14.99
2023-05-16T06:51:12.666Z,15.11
2023-05-16T06:54:17.146Z,15.21
2023-05-16T06:57:21.293Z,15.31
2023-05-16T07:00:25.948Z,15.38
2023-05-16T07:03:32.182Z,15.42
2023-05-16T07:06:36.865Z,15.47
2023-05-16T07:09:41.046Z,15.54
2023-05-16T07:12:45.195Z,15.60
2023-05-16T07:15:49.613Z,15.66
2023-05-16T07:18:54.210Z,15.70
2023-05-16T07:21:58.380Z,15.72
2023-05-16T07:25:02.407Z,15.73
2023-05-16T07:28:06.491Z,15.77
2023-05-16T07:31:10.607Z,15.82
2023-05-16T07:34:14.833Z,15.86
2023-05-16T07:37:20.703Z,15.85
2023-05-16T07:40:28.464Z,15.84
2023-05-16T07:43:35.428Z,15.85
2023-05-16T07:46:39.862Z,15.89
2023-05-16T07:49:44.199Z,15.96
2023-05-16T07:52:48.153Z,16.05
2023-05-16T07:55:52.542Z,16.08
2023-05-16T07:58:56.650Z,16.12
2023-05-16T08:02:01.176Z,16.14
2023-05-16T08:05:06.111Z,16.16
2023-05-16T08:08:10.182Z,16.22
2023-05-16T08:11:14.210Z,16.28
2023-05-16T08:14:19.008Z,16.43
2023-05-16T08:17:23.101Z,16.56
2023-05-16T08:20:27.979Z,16.58
2023-05-16T08:23:32.002Z,16.56
2023-05-16T08:26:37.544Z,16.57
2023-05-16T08:29:41.880Z,16.53
2023-05-16T08:32:46.018Z,16.47
2023-05-16T08:35:52.819Z,16.41
2023-05-16T08:38:56.863Z,16.38
2023-05-16T08:42:01.053Z,16.41
2023-05-16T08:45:07.632Z,16.46
2023-05-16T08:48:14.575Z,16.48
2023-05-16T08:51:20.598Z,16.50
2023-05-16T08:54:26.762Z,16.48
2023-05-16T08:57:33.972Z,16.49
2023-05-16T09:00:39.189Z,16.55
2023-05-16T09:03:44.202Z,16.58
2023-05-16T09:06:48.893Z,16.64
2023-05-16T09:09:53.439Z,16.73
2023-05-16T09:12:57.495Z,16.82
2023-05-16T09:16:19.622Z,16.84
2023-05-16T09:19:23.847Z,16.84
2023-05-16T09:22:29.685Z,16.84
2023-05-16T09:25:34.183Z,16.84
2023-05-16T09:28:39.882Z,16.82
2023-05-16T09:31:44.062Z,16.85
2023-05-16T09:34:49.482Z,16.93
2023-05-16T09:37:54.145Z,17.06
2023-05-16T09:40:58.783Z,17.10
2023-05-16T09:44:06.698Z,17.13
2023-05-16T09:47:11.748Z,17.11
2023-05-16T09:50:17.324Z,17.15
2023-05-16T09:53:30.315Z,17.23
2023-05-16T09:56:35.102Z,17.32
2023-05-16T09:59:40.081Z,17.37
2023-05-16T10:02:44.653Z,17.45
2023-05-16T10:05:50.107Z,17.52
2023-05-16T10:08:54.943Z,17.61
2023-05-16T10:12:06.486Z,17.67
2023-05-16T10:15:10.668Z,17.68
2023-05-16T10:18:15.532Z,17.67
2023-05-16T10:21:22.112Z,17.68
2023-05-16T10:24:52.742Z,17.72
2023-05-16T10:27:58.437Z,17.75
2023-05-16T10:31:03.290Z,17.77
2023-05-16T10:34:07.720Z,17.74
2023-05-16T10:37:11.944Z,17.72
2023-05-16T10:40:17.254Z,17.76
2023-05-16T10:43:30.643Z,17.83
2023-05-16T10:46:34.798Z,17.88
2023-05-16T10:49:42.014Z,17.86
2023-05-16T10:52:45.997Z,17.80
2023-05-16T10:55:58.993Z,17.80
2023-05-16T10:59:04.977Z,17.87
2023-05-16T11:02:28.047Z,17.92
2023-05-16T11:05:33.671Z,17.97
2023-05-16T11:08:37.719Z,17.98
2023-05-16T11:12:00.864Z,18.01
2023-05-16T11:15:25.616Z,18.04
2023-05-16T11:18:33.107Z,18.11
2023-05-16T11:22:05.668Z,18.16
2023-05-16T11:25:11.017Z,18.23
2023-05-16T11:28:15.656Z,18.27
2023-05-16T11:31:20.286Z,18.32
2023-05-16T11:34:24.868Z,18.38
2023-05-16T11:37:29.583Z,18.44
2023-05-16T11:40:34.983Z,18.49
2023-05-16T11:43:45.264Z,18.61
2023-05-16T11:46:50.548Z,18.71
2023-05-16T11:49:58.503Z,18.79
2023-05-16T11:53:02.814Z,18.83
2023-05-16T11:56:08.951Z,18.85
2023-05-16T11:59:13.508Z,18.83
2023-05-16T12:02:17.548Z,18.81
2023-05-16T12:05:27.384Z,18.80
2023-05-16T12:08:32.321Z,18.83
2023-05-16T12:11:44.323Z,18.90
2023-05-16T12:14:50.422Z,18.99
2023-05-16T12:17:55.283Z,19.08
2023-05-16T12:20:59.786Z,19.18
2023-05-16T12:24:04.200Z,19.26
2023-05-16T12:27:08.802Z,19.32
2023-05-16T12:30:17.137Z,19.36
2023-05-16T12:33:22.267Z,19.36
2023-05-16T12:36:31.682Z,19.34
2023-05-16T12:39:39.594Z,19.26
2023-05-16T12:42:45.493Z,19.21
2023-05-16T12:45:55.323Z,19.16
2023-05-16T12:49:05.600Z,19.12
2023-05-16T12:52:18.113Z,19.12
2023-05-16T12:55:23.090Z,19.12
2023-05-16T12:58:27.582Z,19.11
2023-05-16T13:01:31.944Z,19.10
2023-05-16T13:04:37.105Z,19.07
2023-05-16T13:07:41.672Z,19.04
2023-05-16T13:10:45.761Z,19.00
2023-05-16T13:13:49.836Z,18.93
2023-05-16T13:16:53.885Z,18.88
2023-05-16T13:19:58.212Z,18.88
2023-05-16T13:23:02.488Z,18.92
2023-05-16T13:26:06.585Z,18.98
2023-05-16T13:29:12.161Z,19.08
2023-05-16T13:32:16.327Z,19.18
2023-05-16T13:35:20.484Z,19.34
2023-05-16T13:38:24.544Z,19.56
2023-05-16T13:41:28.990Z,19.81
2023-05-16T13:44:33.439Z,19.97
2023-05-16T13:47:38.025Z,20.07
2023-05-16T13:50:44.214Z,20.12
2023-05-16T13:53:48.816Z,20.11
2023-05-16T13:56:53.163Z,20.04
2023-05-16T14:00:24.863Z,19.94
2023-05-16T14:03:21.457Z,19.83
2023-05-16T14:06:25.905Z,19.69
2023-05-16T14:09:29.946Z,19.55
2023-05-16T14:12:33.967Z,19.49
2023-05-16T14:15:38.249Z,19.46
2023-05-16T14:18:42.302Z,19.47
2023-05-16T14:21:46.506Z,19.58
2023-05-16T14:24:50.905Z,19.69
2023-05-16T14:27:54.953Z,19.71
2023-05-16T14:30:59.948Z,19.72
2023-05-16T14:34:04.361Z,19.71
2023-05-16T14:37:10.283Z,19.73
2023-05-16T14:40:14.302Z,19.75
2023-05-16T14:43:18.517Z,19.75
2023-05-16T14:46:22.510Z,19.76
2023-05-16T14:49:26.541Z,19.78
2023-05-16T14:52:30.735Z,19.81
2023-05-16T14:55:34.876Z,19.80
2023-05-16T14:58:38.898Z,19.80
2023-05-16T15:01:42.973Z,19.77
2023-05-16T15:04:47.037Z,19.75
2023-05-16T15:07:51.520Z,19.71
2023-05-16T15:10:55.450Z,19.71
2023-05-16T15:14:00.544Z,19.62
2023-05-16T15:17:07.309Z,19.54
2023-05-16T15:20:13.027Z,19.51
2023-05-16T15:23:17.012Z,19.50
2023-05-16T15:26:22.634Z,19.49
2023-05-16T15:29:26.628Z,19.50
2023-05-16T15:32:30.792Z,19.47
2023-05-16T15:35:34.820Z,19.41
2023-05-16T15:38:44.124Z,19.35
2023-05-16T15:42:08.483Z,19.33
2023-05-16T15:45:12.625Z,19.28
2023-05-16T15:48:16.757Z,19.20
2023-05-16T15:51:21.187Z,19.14
2023-05-16T15:54:25.301Z,19.09
2023-05-16T15:57:30.621Z,19.06
2023-05-16T16:00:34.653Z,19.05
2023-05-16T16:03:38.826Z,19.03
2023-05-16T16:06:43.029Z,19.00
2023-05-16T16:09:47.076Z,18.96
2023-05-16T16:13:04.526Z,18.93
2023-05-16T16:16:08.605Z,18.87
2023-05-16T16:19:12.914Z,18.81
2023-05-16T16:22:17.209Z,18.73
2023-05-16T16:25:21.198Z,18.68
2023-05-16T16:28:25.222Z,18.64
2023-05-16T16:31:29.271Z,18.59
2023-05-16T16:34:33.950Z,18.54
2023-05-16T16:37:38.930Z,18.50
2023-05-16T16:40:43.007Z,18.47
2023-05-16T16:43:47.008Z,18.44
2023-05-16T16:46:51.496Z,18.41
2023-05-16T16:49:56.021Z,18.38
2023-05-16T16:53:01.883Z,18.34
2023-05-16T16:56:07.000Z,18.29
2023-05-16T16:59:11.807Z,18.25
2023-05-16T17:02:16.211Z,18.20
2023-05-16T17:05:20.808Z,18.16
2023-05-16T17:08:25.115Z,18.13
2023-05-16T17:11:30.124Z,18.11
2023-05-16T17:14:35.058Z,18.08
2023-05-16T17:17:39.200Z,18.06
2023-05-16T17:20:43.336Z,18.03
2023-05-16T17:23:47.620Z,18.00
2023-05-16T17:26:51.868Z,17.96
2023-05-16T17:29:55.874Z,17.92
2023-05-16T17:32:59.970Z,17.91
2023-05-16T17:36:05.152Z,17.90
2023-05-16T17:39:10.884Z,17.87
2023-05-16T17:42:15.016Z,17.86
2023-05-16T17:45:19.166Z,17.84
2023-05-16T17:48:23.777Z,17.82
2023-05-16T17:51:27.813Z,17.79
2023-05-16T17:54:32.238Z,17.73
2023-05-16T17:57:38.271Z,17.68
2023-05-16T18:00:42.473Z,17.62
2023-05-16T18:03:46.467Z,17.55
2023-05-16T18:06:53.601Z,17.48
2023-05-16T18:09:57.609Z,17.40
2023-05-16T18:13:02.055Z,17.32
2023-05-16T18:16:06.256Z,17.27
2023-05-16T18:19:10.526Z,17.22
2023-05-16T18:22:15.008Z,17.19
2023-05-16T18:25:19.768Z,17.15
2023-05-16T18:28:24.168Z,17.12
2023-05-16T18:31:28.235Z,17.10
2023-05-16T18:34:32.398Z,17.07
2023-05-16T18:37:37.354Z,17.02
2023-05-16T18:40:41.449Z,16.95
2023-05-16T18:43:45.761Z,16.89
2023-05-16T18:46:52.689Z,16.83
2023-05-16T18:49:56.956Z,16.76
2023-05-16T18:53:01.644Z,16.69
2023-05-16T18:56:05.726Z,16.63
2023-05-16T18:59:10.058Z,16.58
2023-05-16T19:02:14.152Z,16.55
2023-05-16T19:05:19.589Z,16.55
2023-05-16T19:08:25.571Z,16.53
2023-05-16T19:11:31.542Z,16.50
2023-05-16T19:14:35.519Z,16.45
2023-05-16T19:17:41.697Z,16.41
2023-05-16T19:20:45.851Z,16.36
2023-05-16T19:23:49.938Z,16.28
2023-05-16T19:26:54.062Z,16.27
2023-05-16T19:29:58.404Z,16.28
2023-05-16T19:33:02.598Z,16.29
2023-05-16T19:36:08.003Z,16.27
2023-05-16T19:39:12.379Z,16.23
2023-05-16T19:42:16.433Z,16.15
2023-05-16T19:45:21.376Z,16.07
2023-05-16T19:48:25.644Z,15.99
2023-05-16T19:51:40.884Z,15.95
2023-05-16T19:54:45.896Z,15.92
2023-05-16T19:57:52.335Z,15.95
2023-05-16T20:00:57.738Z,15.97
2023-05-16T20:04:02.841Z,15.97
2023-05-16T20:07:07.487Z,15.96
2023-05-16T20:10:11.952Z,15.92
2023-05-16T20:13:20.440Z,15.91
2023-05-16T20:16:24.543Z,15.92
2023-05-16T20:19:29.751Z,15.92
2023-05-16T20:22:34.450Z,15.92
2023-05-16T20:25:38.519Z,15.93
2023-05-16T20:28:42.499Z,15.91
2023-05-16T20:31:46.519Z,15.89
2023-05-16T20:34:50.822Z,15.87
2023-05-16T20:37:54.850Z,15.85
2023-05-16T20:40:59.640Z,15.80
2023-05-16T20:44:03.739Z,15.75
2023-05-16T20:47:08.163Z,15.75
2023-05-16T20:50:12.178Z,15.76
2023-05-16T20:53:16.190Z,15.78
2023-05-16T20:56:20.142Z,15.77
2023-05-16T20:59:24.992Z,15.75
2023-05-16T21:02:29.064Z,15.74
2023-05-16T21:05:35.872Z,15.75
2023-05-16T21:08:40.079Z,15.78
2023-05-16T21:11:44.057Z,15.80
2023-05-16T21:14:48.411Z,15.78
2023-05-16T21:17:52.455Z,15.74
2023-05-16T21:20:56.747Z,15.72
2023-05-16T21:24:00.812Z,15.68
2023-05-16T21:27:05.450Z,15.64
2023-05-16T21:30:10.043Z,15.64
2023-05-16T21:33:14.399Z,15.64
2023-05-16T21:36:19.820Z,15.61
2023-05-16T21:39:23.905Z,15.59
2023-05-16T21:42:27.974Z,15.58
2023-05-16T21:45:32.059Z,15.55
2023-05-16T21:48:36.219Z,15.55
2023-05-16T21:51:41.133Z,15.52
2023-05-16T21:54:51.437Z,15.49
2023-05-16T21:57:55.475Z,15.49
2023-05-16T22:01:12.014Z,15.50
2023-05-16T22:04:28.057Z,15.51
2023-05-16T22:07:32.265Z,15.48
2023-05-16T22:10:36.545Z,15.45
2023-05-16T22:13:40.742Z,15.42
2023-05-16T22:16:45.118Z,15.40
2023-05-16T22:19:49.275Z,15.40
2023-05-16T22:22:53.936Z,15.40
2023-05-16T22:25:57.976Z,15.42
2023-05-16T22:29:02.007Z,15.44
2023-05-16T22:32:09.981Z,15.44
2023-05-16T22:35:14.262Z,15.41
2023-05-16T22:38:18.303Z,15.37
2023-05-16T22:41:22.297Z,15.36
2023-05-16T22:44:26.773Z,15.36
2023-05-16T22:47:31.123Z,15.33
2023-05-16T22:50:35.139Z,15.30
2023-05-16T22:53:39.262Z,15.27
2023-05-16T22:56:43.735Z,15.21
2023-05-16T22:59:47.709Z,15.15
2023-05-16T23:02:52.004Z,15.12
2023-05-16T23:05:56.510Z,15.09
2023-05-16T23:09:00.741Z,15.07
2023-05-16T23:12:04.972Z,15.08
2023-05-16T23:15:10.501Z,15.09
2023-05-16T23:18:14.656Z,15.09
2023-05-16T23:21:18.772Z,15.08
2023-05-16T23:24:23.149Z,15.06
2023-05-16T23:27:27.139Z,15.06
2023-05-16T23:30:31.641Z,15.04
2023-05-16T23:33:35.897Z,14.99
2023-05-16T23:36:40.628Z,14.96
2023-05-16T23:39:44.770Z,14.93
2023-05-16T23:42:48.911Z,14.93
2023-05-16T23:45:52.937Z,14.91
2023-05-16T23:48:57.401Z,14.91
2023-05-16T23:52:01.669Z,14.89
2023-05-16T23:55:06.324Z,14.89
2023-05-16T23:58:10.372Z,14.90
